createdAt,value
2019-04-11T00:01:16.364Z,12.47
2019-04-11T00:03:46.011Z,11.47
2019-04-11T00:06:15.523Z,11.60
2019-04-11T00:08:45.942Z,11.67
2019-04-11T00:11:15.659Z,12.07
2019-04-11T00:13:45.204Z,12.03
2019-04-11T00:16:15.239Z,11.83
2019-04-11T00:18:44.998Z,12.10
2019-04-11T00:21:14.812Z,11.40
2019-04-11T00:23:44.350Z,11.10
2019-04-11T00:26:13.903Z,11.07
2019-04-11T00:28:43.333Z,11.40
2019-04-11T00:31:12.677Z,10.90
2019-04-11T00:33:42.487Z,10.63
2019-04-11T00:36:12.386Z,10.50
2019-04-11T00:38:42.340Z,11.67
2019-04-11T00:41:11.723Z,11.00
2019-04-11T00:43:43.485Z,11.60
2019-04-11T00:46:12.462Z,10.33
2019-04-11T00:48:41.892Z,13.10
2019-04-11T00:51:11.887Z,10.57
2019-04-11T00:53:42.361Z,10.60
2019-04-11T00:56:12.415Z,11.10
2019-04-11T00:58:42.027Z,12.10
2019-04-11T01:01:11.511Z,12.50
2019-04-11T01:03:41.109Z,11.87
2019-04-11T01:06:10.738Z,10.93
2019-04-11T01:08:40.172Z,11.63
2019-04-11T01:11:09.908Z,11.40
2019-04-11T01:13:47.335Z,11.10
2019-04-11T01:16:28.339Z,11.77
2019-04-11T01:18:58.313Z,11.47
2019-04-11T01:21:28.563Z,11.27
2019-04-11T01:23:58.042Z,11.30
2019-04-11T01:26:28.303Z,10.53
2019-04-11T01:28:58.800Z,11.07
2019-04-11T01:31:29.878Z,11.20
2019-04-11T01:34:00.183Z,11.20
2019-04-11T01:36:29.631Z,11.07
2019-04-11T01:39:01.002Z,11.73
2019-04-11T01:41:30.891Z,12.20
2019-04-11T01:44:03.755Z,10.80
2019-04-11T01:46:31.938Z,10.83
2019-04-11T01:49:03.923Z,10.93
2019-04-11T01:51:33.868Z,11.27
2019-04-11T01:54:03.634Z,10.47
2019-04-11T01:56:33.596Z,10.70
2019-04-11T01:59:03.187Z,10.90
2019-04-11T02:01:34.170Z,11.30
2019-04-11T02:04:05.831Z,10.50
2019-04-11T02:06:36.207Z,10.70
2019-04-11T02:09:08.710Z,11.57
2019-04-11T02:11:38.069Z,10.50
2019-04-11T02:14:14.289Z,11.00
2019-04-11T02:16:38.541Z,10.50
2019-04-11T02:19:08.073Z,11.03
2019-04-11T02:21:37.912Z,10.93
2019-04-11T02:24:11.972Z,10.70
2019-04-11T02:26:44.459Z,10.17
2019-04-11T02:29:14.087Z,10.73
2019-04-11T02:31:44.539Z,10.90
2019-04-11T02:34:15.974Z,11.50
2019-04-11T02:36:45.607Z,9.70
2019-04-11T02:39:19.519Z,11.47
2019-04-11T02:41:46.827Z,9.93
2019-04-11T02:44:32.040Z,10.57
2019-04-11T02:47:00.244Z,10.73
2019-04-11T02:49:19.411Z,10.37
2019-04-11T02:51:51.295Z,9.40
2019-04-11T02:54:22.408Z,10.20
2019-04-11T02:56:54.554Z,9.87
2019-04-11T02:59:25.315Z,10.07
2019-04-11T03:01:55.821Z,9.63
2019-04-11T03:04:26.920Z,9.77
2019-04-11T03:06:57.418Z,9.87
2019-04-11T03:09:27.185Z,9.70
2019-04-11T03:11:59.168Z,9.07
2019-04-11T03:14:44.649Z,10.07
2019-04-11T03:17:11.894Z,9.17
2019-04-11T03:19:44.087Z,8.53
2019-04-11T03:22:03.372Z,9.00
2019-04-11T03:24:35.280Z,9.53
2019-04-11T03:27:05.703Z,9.57
2019-04-11T03:29:37.448Z,9.47
2019-04-11T03:35:20.399Z,9.33
2019-04-11T03:37:51.288Z,10.53
2019-04-11T03:39:59.445Z,9.03
2019-04-11T03:42:29.625Z,8.80
2019-04-11T03:44:50.202Z,8.67
2019-04-11T03:47:27.815Z,8.67
2019-04-11T03:49:51.960Z,9.07
2019-04-11T03:52:19.318Z,9.30
2019-04-11T03:54:49.634Z,9.47
2019-04-11T03:57:19.246Z,8.63
2019-04-11T03:59:48.667Z,8.60
2019-04-11T04:02:20.234Z,8.70
2019-04-11T04:04:51.233Z,8.30
2019-04-11T04:07:21.420Z,9.40
2019-04-11T04:09:51.273Z,8.73
2019-04-11T04:12:22.654Z,8.53
2019-04-11T04:15:13.017Z,8.00
2019-04-11T04:17:45.491Z,8.30
2019-04-11T04:20:17.168Z,8.37
2019-04-11T04:22:52.430Z,8.40
2019-04-11T04:25:22.122Z,8.33
2019-04-11T04:27:51.539Z,7.63
2019-04-11T04:30:21.963Z,8.00
2019-04-11T04:32:52.221Z,8.53
2019-04-11T04:35:23.588Z,8.83
2019-04-11T04:37:54.406Z,7.70
2019-04-11T04:40:41.370Z,8.97
2019-04-11T04:42:59.152Z,9.10
2019-04-11T04:45:29.998Z,8.50
2019-04-11T04:48:05.560Z,7.93
2019-04-11T04:50:30.990Z,7.77
2019-04-11T04:53:02.563Z,8.90
2019-04-11T04:55:32.663Z,8.60
2019-04-11T04:58:02.243Z,8.93
2019-04-11T05:00:32.146Z,8.40
2019-04-11T05:03:02.364Z,9.47
2019-04-11T05:05:33.704Z,8.70
2019-04-11T05:08:03.238Z,7.40
2019-04-11T05:10:32.806Z,7.87
2019-04-11T05:13:03.553Z,7.90
2019-04-11T05:15:34.453Z,8.23
2019-04-11T05:18:05.959Z,7.70
2019-04-11T05:20:36.385Z,7.87
2019-04-11T05:23:06.738Z,7.20
2019-04-11T05:25:36.939Z,8.37
2019-04-11T05:28:06.584Z,7.23
2019-04-11T05:30:36.402Z,8.17
2019-04-11T05:33:06.040Z,8.63
2019-04-11T05:35:36.237Z,7.83
2019-04-11T05:38:05.686Z,7.70
2019-04-11T05:40:35.033Z,7.80
2019-04-11T05:43:04.460Z,7.37
2019-04-11T05:45:33.837Z,7.63
2019-04-11T05:48:05.204Z,7.67
2019-04-11T05:50:35.994Z,7.50
2019-04-11T05:53:05.802Z,7.50
2019-04-11T05:55:36.368Z,7.60
2019-04-11T05:58:10.684Z,7.00
2019-04-11T06:00:40.893Z,7.53
2019-04-11T06:03:11.130Z,6.90
2019-04-11T06:06:00.453Z,7.17
2019-04-11T06:08:31.789Z,7.03
2019-04-11T06:11:09.509Z,7.27
2019-04-11T06:13:40.684Z,7.83
2019-04-11T06:16:12.458Z,7.63
2019-04-11T06:18:46.355Z,7.23
2019-04-11T06:21:19.997Z,7.27
2019-04-11T06:24:07.758Z,8.10
2019-04-11T06:26:42.816Z,7.87
2019-04-11T06:29:21.141Z,7.53
2019-04-11T06:31:55.666Z,8.30
2019-04-11T06:34:27.049Z,7.50
2019-04-11T06:37:13.918Z,7.27
2019-04-11T06:39:45.340Z,7.50
2019-04-11T06:42:30.174Z,7.27
2019-04-11T06:45:04.133Z,7.67
2019-04-11T06:47:45.032Z,7.27
2019-04-11T06:50:17.289Z,7.50
2019-04-11T06:52:46.824Z,7.97
2019-04-11T06:55:20.613Z,7.20
2019-04-11T06:57:51.597Z,7.40
2019-04-11T07:00:21.097Z,8.23
2019-04-11T07:03:01.336Z,7.73
2019-04-11T07:05:33.165Z,7.27
2019-04-11T07:08:05.461Z,7.67
2019-04-11T07:10:45.430Z,8.37
2019-04-11T07:13:20.626Z,8.17
2019-04-11T07:15:50.591Z,7.70
2019-04-11T07:18:37.743Z,8.37
2019-04-11T07:21:09.053Z,7.97
2019-04-11T07:23:57.581Z,8.30
2019-04-11T07:26:35.139Z,7.73
2019-04-11T07:29:13.066Z,7.97
2019-04-11T07:31:46.815Z,6.60
2019-04-11T07:34:24.229Z,7.67
2019-04-11T07:37:04.600Z,6.70
2019-04-11T07:39:44.602Z,7.03
2019-04-11T07:42:18.186Z,6.57
2019-04-11T07:45:06.562Z,6.50
2019-04-11T07:47:43.968Z,5.73
2019-04-11T07:50:15.682Z,5.53
2019-04-11T07:52:49.443Z,5.50
2019-04-11T07:55:21.047Z,6.23
2019-04-11T07:57:52.508Z,5.30
2019-04-11T08:00:45.692Z,6.73
2019-04-11T08:03:29.839Z,5.87
2019-04-11T08:06:10.914Z,6.00
2019-04-11T08:08:49.424Z,5.80
2019-04-11T08:11:23.638Z,5.73
2019-04-11T08:14:12.590Z,6.17
2019-04-11T08:16:46.898Z,5.90
2019-04-11T08:19:24.796Z,5.57
2019-04-11T08:21:58.824Z,6.07
2019-04-11T08:27:31.603Z,6.37
2019-04-11T08:30:02.741Z,5.60
2019-04-11T08:32:40.124Z,5.47
2019-04-11T08:35:28.687Z,5.50
2019-04-11T08:38:02.801Z,5.50
2019-04-11T08:40:53.364Z,5.77
2019-04-11T08:43:31.192Z,6.13
2019-04-11T08:46:15.005Z,6.10
2019-04-11T08:49:07.685Z,5.80
2019-04-11T08:51:37.280Z,6.30
2019-04-11T08:54:11.236Z,5.47
2019-04-11T08:56:43.804Z,6.30
2019-04-11T08:59:34.187Z,6.00
2019-04-11T09:02:04.630Z,5.77
2019-04-11T09:04:36.552Z,5.93
2019-04-11T09:07:07.273Z,6.03
2019-04-11T09:09:45.598Z,6.00
2019-04-11T09:12:15.190Z,5.43
2019-04-11T09:14:48.961Z,5.70
2019-04-11T09:17:21.365Z,6.23
2019-04-11T09:19:56.924Z,6.00
2019-04-11T09:22:31.233Z,5.97
2019-04-11T09:25:11.427Z,6.43
2019-04-11T09:27:49.025Z,5.67
2019-04-11T09:30:36.835Z,6.30
2019-04-11T09:33:24.708Z,6.20
2019-04-11T09:35:55.795Z,5.87
2019-04-11T09:38:42.349Z,5.20
2019-04-11T09:41:30.185Z,6.03
2019-04-11T09:44:07.139Z,5.30
2019-04-11T09:46:50.608Z,6.03
2019-04-11T09:49:22.720Z,5.37
2019-04-11T09:51:53.937Z,5.63
2019-04-11T09:54:26.105Z,5.70
2019-04-11T09:57:00.292Z,5.77
2019-04-11T09:59:34.268Z,5.87
2019-04-11T10:02:21.308Z,6.63
2019-04-11T10:04:52.328Z,6.80
2019-04-11T10:07:23.754Z,6.40
2019-04-11T10:09:57.280Z,6.30
2019-04-11T10:12:40.540Z,6.23
2019-04-11T10:15:11.512Z,6.43
2019-04-11T10:17:58.970Z,5.77
2019-04-11T10:20:28.826Z,5.97
2019-04-11T10:23:03.285Z,6.10
2019-04-11T10:25:35.163Z,6.27
2019-04-11T10:28:09.542Z,6.70
2019-04-11T10:30:46.747Z,6.30
2019-04-11T10:33:17.753Z,7.33
2019-04-11T10:35:48.839Z,6.30
2019-04-11T10:38:20.404Z,6.40
2019-04-11T10:43:49.623Z,6.37
2019-04-11T10:46:36.071Z,5.70
2019-04-11T10:49:07.542Z,5.40
2019-04-11T10:51:42.307Z,5.53
2019-04-11T10:54:13.639Z,6.33
2019-04-11T10:57:00.953Z,5.07
2019-04-11T10:59:38.557Z,4.70
2019-04-11T11:02:22.986Z,5.43
2019-04-11T11:04:54.164Z,5.33
2019-04-11T11:07:24.656Z,6.13
2019-04-11T11:09:56.706Z,5.43
2019-04-11T11:12:30.713Z,5.70
2019-04-11T11:15:04.411Z,5.83
2019-04-11T11:17:54.968Z,6.07
2019-04-11T11:20:33.639Z,6.77
2019-04-11T11:22:58.443Z,5.43
2019-04-11T11:25:35.547Z,5.73
2019-04-11T11:28:05.427Z,5.90
2019-04-11T11:30:54.125Z,6.00
2019-04-11T11:33:26.542Z,6.40
2019-04-11T11:36:09.979Z,6.03
2019-04-11T11:38:37.739Z,5.53
2019-04-11T11:41:25.251Z,6.40
2019-04-11T11:43:55.097Z,5.63
2019-04-11T11:46:42.529Z,5.97
2019-04-11T11:49:12.544Z,5.23
2019-04-11T11:51:52.094Z,5.63
2019-04-11T11:54:31.941Z,5.33
2019-04-11T11:57:02.931Z,5.07
2019-04-11T11:59:34.455Z,5.93
2019-04-11T12:02:16.801Z,5.90
2019-04-11T12:04:46.843Z,5.40
2019-04-11T12:07:18.856Z,6.30
2019-04-11T12:10:06.909Z,5.37
2019-04-11T12:12:53.939Z,5.63
2019-04-11T12:15:41.330Z,4.47
2019-04-11T12:18:21.651Z,5.17
2019-04-11T12:20:57.537Z,4.87
2019-04-11T12:23:44.735Z,4.90
2019-04-11T12:26:03.746Z,4.73
2019-04-11T12:28:43.940Z,4.53
2019-04-11T12:31:13.408Z,5.50
2019-04-11T12:33:59.790Z,5.03
2019-04-11T12:36:37.099Z,5.10
2019-04-11T12:39:28.820Z,5.13
2019-04-11T12:42:02.403Z,4.47
2019-04-11T12:44:33.395Z,5.50
2019-04-11T12:47:19.655Z,4.90
2019-04-11T12:49:53.126Z,4.80
2019-04-11T12:52:38.431Z,5.17
2019-04-11T12:55:15.467Z,5.20
2019-04-11T12:57:52.119Z,5.13
2019-04-11T13:00:39.736Z,4.83
2019-04-11T13:03:26.942Z,5.00
2019-04-11T13:06:06.710Z,5.47
2019-04-11T13:08:52.414Z,5.30
2019-04-11T13:11:23.407Z,5.63
2019-04-11T13:13:57.114Z,4.93
2019-04-11T13:16:28.025Z,5.40
2019-04-11T13:18:59.040Z,5.70
2019-04-11T13:21:30.017Z,4.97
2019-04-11T13:24:16.338Z,5.60
2019-04-11T13:27:05.407Z,5.20
2019-04-11T13:29:39.221Z,5.33
2019-04-11T13:32:28.361Z,4.87
2019-04-11T13:35:05.029Z,5.20
2019-04-11T13:37:52.131Z,5.50
2019-04-11T13:40:39.459Z,5.67
2019-04-11T13:43:10.454Z,4.93
2019-04-11T13:45:47.455Z,5.47
2019-04-11T13:48:34.844Z,5.30
2019-04-11T13:51:20.930Z,5.23
2019-04-11T13:54:08.140Z,5.20
2019-04-11T13:56:54.471Z,4.97
2019-04-11T13:59:34.443Z,5.13
2019-04-11T14:02:07.606Z,5.40
2019-04-11T14:04:44.078Z,5.70
2019-04-11T14:07:15.134Z,5.63
2019-04-11T14:09:46.146Z,5.47
2019-04-11T14:12:15.646Z,5.60
2019-04-11T14:14:45.491Z,5.63
2019-04-11T14:17:18.214Z,5.13
2019-04-11T14:19:52.551Z,6.10
2019-04-11T14:22:28.932Z,5.63
2019-04-11T14:25:14.948Z,5.30
2019-04-11T14:27:45.114Z,5.83
2019-04-11T14:30:32.878Z,6.07
2019-04-11T14:33:02.395Z,5.17
2019-04-11T14:35:49.623Z,6.20
2019-04-11T14:38:23.171Z,6.37
2019-04-11T14:41:01.867Z,6.13
2019-04-11T14:43:35.910Z,5.47
2019-04-11T14:46:16.212Z,6.20
2019-04-11T14:48:50.228Z,6.27
2019-04-11T14:51:23.749Z,5.30
2019-04-11T14:54:11.704Z,5.83
2019-04-11T14:56:58.434Z,6.40
2019-04-11T14:59:32.135Z,6.30
2019-04-11T15:02:14.964Z,5.57
2019-04-11T15:04:48.686Z,5.23
2019-04-11T15:07:19.595Z,5.47
2019-04-11T15:09:50.615Z,5.60
2019-04-11T15:12:21.594Z,6.10
2019-04-11T15:14:55.288Z,5.83
2019-04-11T15:17:29.019Z,5.73
2019-04-11T15:20:08.913Z,5.67
2019-04-11T15:22:45.668Z,5.80
2019-04-11T15:25:20.135Z,5.87
2019-04-11T15:28:08.047Z,6.33
2019-04-11T15:30:57.695Z,6.00
2019-04-11T15:33:44.856Z,6.07
2019-04-11T15:36:28.506Z,6.50
2019-04-11T15:39:16.130Z,5.67
2019-04-11T15:41:47.116Z,6.20
2019-04-11T15:44:34.656Z,6.50
2019-04-11T15:47:05.710Z,6.30
2019-04-11T15:49:42.878Z,6.17
2019-04-11T15:52:13.698Z,5.97
2019-04-11T15:54:47.471Z,6.53
2019-04-11T15:57:18.456Z,6.47
2019-04-11T15:59:54.291Z,6.03
2019-04-11T16:02:31.001Z,6.00
2019-04-11T16:05:02.843Z,5.87
2019-04-11T16:07:49.174Z,6.50
2019-04-11T16:10:20.429Z,6.13
2019-04-11T16:12:51.437Z,6.00
2019-04-11T16:15:23.326Z,6.57
2019-04-11T16:17:58.004Z,6.13
2019-04-11T16:20:27.639Z,6.00
2019-04-11T16:23:01.423Z,6.13
2019-04-11T16:25:30.800Z,5.93
2019-04-11T16:28:01.785Z,5.83
2019-04-11T16:30:45.361Z,5.57
2019-04-11T16:33:32.505Z,6.00
2019-04-11T16:36:06.311Z,6.13
2019-04-11T16:38:50.338Z,6.17
2019-04-11T16:41:37.713Z,5.83
2019-04-11T16:44:25.567Z,6.30
2019-04-11T16:46:59.642Z,5.67
2019-04-11T16:49:29.031Z,5.50
2019-04-11T16:51:58.380Z,4.90
2019-04-11T16:54:27.750Z,5.97
2019-04-11T16:56:57.083Z,5.70
2019-04-11T16:59:26.443Z,4.97
2019-04-11T17:01:55.813Z,5.40
2019-04-11T17:04:26.083Z,5.40
2019-04-11T17:06:57.774Z,5.33
2019-04-11T17:09:43.757Z,5.53
2019-04-11T17:12:13.327Z,5.30
2019-04-11T17:14:42.727Z,6.00
2019-04-11T17:17:15.238Z,6.17
2019-04-11T17:19:43.134Z,5.10
2019-04-11T17:22:12.505Z,6.07
2019-04-11T17:24:41.870Z,5.63
2019-04-11T17:27:11.206Z,5.50
2019-04-11T17:29:40.568Z,5.07
2019-04-11T17:32:09.997Z,5.40
2019-04-11T17:34:39.403Z,5.03
2019-04-11T17:37:08.777Z,5.30
2019-04-11T17:39:38.135Z,6.27
2019-04-11T17:42:07.512Z,5.50
2019-04-11T17:44:36.867Z,5.20
2019-04-11T17:47:06.231Z,5.30
2019-04-11T17:49:35.604Z,5.30
2019-04-11T17:52:06.568Z,5.17
2019-04-11T17:54:35.933Z,5.63
2019-04-11T17:57:05.439Z,5.47
2019-04-11T17:59:34.860Z,5.23
2019-04-11T18:02:10.055Z,5.70
2019-04-11T18:04:36.893Z,6.03
2019-04-11T18:07:06.332Z,5.60
2019-04-11T18:09:35.759Z,7.20
2019-04-11T18:12:06.814Z,5.57
2019-04-11T18:14:36.211Z,5.33
2019-04-11T18:17:05.681Z,6.20
2019-04-11T18:19:36.272Z,5.77
2019-04-11T18:22:08.626Z,5.90
2019-04-11T18:24:38.943Z,5.80
2019-04-11T18:27:08.379Z,5.80
2019-04-11T18:29:37.744Z,6.33
2019-04-11T18:32:07.240Z,6.20
2019-04-11T18:34:36.597Z,5.73
2019-04-11T18:37:05.974Z,5.37
2019-04-11T18:39:35.926Z,6.03
2019-04-11T18:42:06.674Z,5.80
2019-04-11T18:44:36.029Z,5.37
2019-04-11T18:47:05.543Z,5.90
2019-04-11T18:49:34.922Z,6.50
2019-04-11T18:52:04.411Z,6.13
2019-04-11T18:54:33.794Z,5.83
2019-04-11T18:57:03.232Z,6.70
2019-04-11T18:59:34.015Z,6.20
2019-04-11T19:02:04.081Z,6.83
2019-04-11T19:04:33.547Z,6.07
2019-04-11T19:07:05.071Z,5.77
2019-04-11T19:09:34.735Z,5.73
2019-04-11T19:12:04.990Z,6.07
2019-04-11T19:14:34.363Z,6.03
2019-04-11T19:17:03.787Z,5.60
2019-04-11T19:19:33.212Z,5.80
2019-04-11T19:22:02.630Z,5.73
2019-04-11T19:24:35.812Z,5.17
2019-04-11T19:27:03.146Z,5.73
2019-04-11T19:29:32.570Z,5.30
2019-04-11T19:32:01.932Z,6.00
2019-04-11T19:34:31.323Z,5.50
2019-04-11T19:37:00.757Z,5.60
2019-04-11T19:39:30.147Z,5.00
2019-04-11T19:41:59.509Z,5.10
2019-04-11T19:44:28.933Z,5.97
2019-04-11T19:46:58.322Z,6.03
2019-04-11T19:49:29.042Z,6.13
2019-04-11T19:52:01.543Z,5.40
2019-04-11T19:54:32.737Z,6.63
2019-04-11T19:57:02.573Z,5.20
2019-04-11T19:59:31.935Z,5.93
2019-04-11T20:02:01.278Z,5.27
2019-04-11T20:04:30.721Z,5.77
2019-04-11T20:07:00.067Z,5.00
2019-04-11T20:09:29.497Z,5.40
2019-04-11T20:12:00.742Z,5.47
2019-04-11T20:14:34.173Z,5.10
2019-04-11T20:17:01.152Z,5.33
2019-04-11T20:19:30.519Z,5.10
2019-04-11T20:21:59.884Z,5.87
2019-04-11T20:24:29.259Z,4.97
2019-04-11T20:26:58.779Z,4.83
2019-04-11T20:29:28.271Z,5.50
2019-04-11T20:31:57.694Z,4.97
2019-04-11T20:34:28.154Z,4.83
2019-04-11T20:36:57.666Z,5.53
2019-04-11T20:39:27.002Z,5.17
2019-04-11T20:41:56.379Z,5.30
2019-04-11T20:44:27.564Z,5.17
2019-04-11T20:47:00.196Z,5.97
2019-04-11T20:49:27.829Z,5.23
2019-04-11T20:51:57.164Z,4.90
2019-04-11T20:54:26.517Z,5.27
2019-04-11T20:56:55.940Z,4.60
2019-04-11T20:59:33.996Z,5.40
2019-04-11T21:01:57.003Z,4.80
2019-04-11T21:04:26.564Z,5.50
2019-04-11T21:06:55.909Z,4.87
2019-04-11T21:09:25.254Z,4.80
2019-04-11T21:11:54.589Z,4.50
2019-04-11T21:14:24.013Z,5.10
2019-04-11T21:16:53.361Z,4.63
2019-04-11T21:19:23.241Z,4.43
2019-04-11T21:21:53.598Z,5.17
2019-04-11T21:24:23.783Z,4.80
2019-04-11T21:26:53.138Z,4.87
2019-04-11T21:29:22.501Z,5.07
2019-04-11T21:31:51.911Z,5.30
2019-04-11T21:34:21.278Z,4.47
2019-04-11T21:36:50.634Z,4.97
2019-04-11T21:39:19.995Z,6.47
2019-04-11T21:41:49.344Z,4.60
2019-04-11T21:44:18.696Z,4.77
2019-04-11T21:46:49.283Z,4.90
2019-04-11T21:49:18.897Z,5.10
2019-04-11T21:51:48.233Z,4.63
2019-04-11T21:54:17.604Z,4.60
2019-04-11T21:56:49.358Z,4.83
2019-04-11T21:59:20.424Z,4.50
2019-04-11T22:01:49.220Z,4.80
2019-04-11T22:04:18.630Z,4.67
2019-04-11T22:06:48.087Z,4.77
2019-04-11T22:09:17.507Z,5.13
2019-04-11T22:11:46.861Z,4.30
2019-04-11T22:14:16.202Z,4.63
2019-04-11T22:16:45.542Z,4.80
2019-04-11T22:19:14.978Z,4.60
2019-04-11T22:21:45.381Z,4.50
2019-04-11T22:24:15.355Z,4.53
2019-04-11T22:26:44.783Z,4.70
2019-04-11T22:29:14.112Z,5.07
2019-04-11T22:31:43.474Z,6.47
2019-04-11T22:34:14.513Z,4.97
2019-04-11T22:36:43.874Z,5.57
2019-04-11T22:39:13.282Z,4.60
2019-04-11T22:41:42.644Z,5.60
2019-04-11T22:44:11.982Z,5.53
2019-04-11T22:46:41.343Z,4.93
2019-04-11T22:49:10.674Z,6.03
2019-04-11T22:51:42.749Z,5.60
2019-04-11T22:54:13.169Z,5.50
2019-04-11T22:56:42.417Z,4.77
2019-04-11T22:59:13.613Z,4.67
2019-04-11T23:01:46.493Z,5.57
2019-04-11T23:04:16.599Z,4.83
2019-04-11T23:06:47.317Z,5.13
2019-04-11T23:09:18.637Z,4.57
2019-04-11T23:11:47.269Z,4.87
2019-04-11T23:14:16.610Z,4.77
2019-04-11T23:16:45.943Z,4.43
2019-04-11T23:19:15.294Z,4.67
2019-04-11T23:21:44.668Z,5.47
2019-04-11T23:24:14.039Z,5.60
2019-04-11T23:26:43.388Z,5.10
2019-04-11T23:29:15.672Z,6.50
2019-04-11T23:31:43.802Z,5.20
2019-04-11T23:34:13.143Z,4.73
2019-04-11T23:36:42.506Z,4.77
2019-04-11T23:39:11.849Z,5.17
2019-04-11T23:41:41.282Z,4.97
2019-04-11T23:44:10.614Z,5.17
2019-04-11T23:46:39.976Z,5.70
2019-04-11T23:49:09.311Z,5.13
2019-04-11T23:51:38.684Z,5.33
2019-04-11T23:54:08.019Z,4.57
2019-04-11T23:56:37.368Z,5.30
2019-04-11T23:59:06.699Z,5.10
